sensor_id;sensor_type;location;lat;lon;timestamp;P1;P2;P0
74436;PMS7003;62868;52.360;30.424;2023-02-21T00:01:48;0.3;0;0
74436;PMS7003;62868;52.360;30.424;2023-02-21T00:06:10;0;0;0
74436;PMS7003;62868;52.360;30.424;2023-02-21T00:12:00;0;0;0
74436;PMS7003;62868;52.360;30.424;2023-02-21T00:17:02;0;0;0
74436;PMS7003;62868;52.360;30.424;2023-02-21T00:21:10;0;0;0
74436;PMS7003;62868;52.360;30.424;2023-02-21T00:26:48;0;0;0
74436;PMS7003;62868;52.360;30.424;2023-02-21T00:31:32;0.5;0.3;0
74436;PMS7003;62868;52.360;30.424;2023-02-21T00:37:02;0;0;0
74436;PMS7003;62868;52.360;30.424;2023-02-21T00:41:10;0;0;0
74436;PMS7003;62868;52.360;30.424;2023-02-21T00:46:22;0;0;0
74436;PMS7003;62868;52.360;30.424;2023-02-21T00:51:50;0;0;0
74436;PMS7003;62868;52.360;30.424;2023-02-21T00:56:10;0;0;0
74436;PMS7003;62868;52.360;30.424;2023-02-21T01:02:00;0;0;0
74436;PMS7003;62868;52.360;30.424;2023-02-21T01:06:22;0;0;0
74436;PMS7003;62868;52.360;30.424;2023-02-21T01:11:23;0;0;0
74436;PMS7003;62868;52.360;30.424;2023-02-21T01:16:46;0;0;0
74436;PMS7003;62868;52.360;30.424;2023-02-21T01:21:32;0.3;0;0
74436;PMS7003;62868;52.360;30.424;2023-02-21T01:27:02;0;0;0
74436;PMS7003;62868;52.360;30.424;2023-02-21T01:31:10;0;0;0
74436;PMS7003;62868;52.360;30.424;2023-02-21T01:36:20;0;0;0
74436;PMS7003;62868;52.360;30.424;2023-02-21T01:41:48;0.3;0;0
74436;PMS7003;62868;52.360;30.424;2023-02-21T01:46:10;0;0;0
74436;PMS7003;62868;52.360;30.424;2023-02-21T01:52:04;0;0;0
74436;PMS7003;62868;52.360;30.424;2023-02-21T01:56:10;0;0;0
74436;PMS7003;62868;52.360;30.424;2023-02-21T02:01:26;0;0;0
74436;PMS7003;62868;52.360;30.424;2023-02-21T02:06:50;0;0;0
74436;PMS7003;62868;52.360;30.424;2023-02-21T02:11:38;0;0;0
74436;PMS7003;62868;52.360;30.424;2023-02-21T02:17:04;0;0;0
74436;PMS7003;62868;52.360;30.424;2023-02-21T02:22:23;0;0;0
74436;PMS7003;62868;52.360;30.424;2023-02-21T02:26:18;0;0;0
74436;PMS7003;62868;52.360;30.424;2023-02-21T02:31:52;0;0;0
74436;PMS7003;62868;52.360;30.424;2023-02-21T02:36:11;0;0;0
74436;PMS7003;62868;52.360;30.424;2023-02-21T02:42:01;0;0;0
74436;PMS7003;62868;52.360;30.424;2023-02-21T02:46:21;0;0;0
74436;PMS7003;62868;52.360;30.424;2023-02-21T02:51:22;0;0;0
74436;PMS7003;62868;52.360;30.424;2023-02-21T02:56:48;0;0;0
74436;PMS7003;62868;52.360;30.424;2023-02-21T03:01:26;0;0;0
74436;PMS7003;62868;52.360;30.424;2023-02-21T03:06:52;0;0;0
74436;PMS7003;62868;52.360;30.424;2023-02-21T03:11:34;0;0;0
74436;PMS7003;62868;52.360;30.424;2023-02-21T03:16:11;0;0;0
74436;PMS7003;62868;52.360;30.424;2023-02-21T03:21:50;0;0;0
74436;PMS7003;62868;52.360;30.424;2023-02-21T03:26:20;0.3;0;0
74436;PMS7003;62868;52.360;30.424;2023-02-21T03:32:04;0;0;0
74436;PMS7003;62868;52.360;30.424;2023-02-21T03:36:36;0;0;0
74436;PMS7003;62868;52.360;30.424;2023-02-21T03:41:10;0;0;0
74436;PMS7003;62868;52.360;30.424;2023-02-21T03:46:50;0;0;0
74436;PMS7003;62868;52.360;30.424;2023-02-21T03:51:22;0;0;0
74436;PMS7003;62868;52.360;30.424;2023-02-21T03:57:04;0;0;0
74436;PMS7003;62868;52.360;30.424;2023-02-21T04:01:24;0;0;0
74436;PMS7003;62868;52.360;30.424;2023-02-21T04:06:10;0;0;0
74436;PMS7003;62868;52.360;30.424;2023-02-21T04:11:48;0;0;0
74436;PMS7003;62868;52.360;30.424;2023-02-21T04:16:20;0;0;0
74436;PMS7003;62868;52.360;30.424;2023-02-21T04:22:00;0;0;0
74436;PMS7003;62868;52.360;30.424;2023-02-21T04:26:10;0;0;0
74436;PMS7003;62868;52.360;30.424;2023-02-21T04:31:10;0;0;0
74436;PMS7003;62868;52.360;30.424;2023-02-21T04:36:48;0;0;0
74436;PMS7003;62868;52.360;30.424;2023-02-21T04:41:32;0;0;0
74436;PMS7003;62868;52.360;30.424;2023-02-21T04:47:02;0;0;0
74436;PMS7003;62868;52.360;30.424;2023-02-21T04:51:10;0.3;0;0
74436;PMS7003;62868;52.360;30.424;2023-02-21T04:56:10;0;0;0
74436;PMS7003;62868;52.360;30.424;2023-02-21T05:02:00;0;0;0
74436;PMS7003;62868;52.360;30.424;2023-02-21T05:06:21;0;0;0
74436;PMS7003;62868;52.360;30.424;2023-02-21T05:11:50;0;0;0
74436;PMS7003;62868;52.360;30.424;2023-02-21T05:16:20;0.3;0;0
74436;PMS7003;62868;52.360;30.424;2023-02-21T05:21:34;0;0;0
74436;PMS7003;62868;52.360;30.424;2023-02-21T05:26:11;0;0;0
74436;PMS7003;62868;52.360;30.424;2023-02-21T05:31:32;0;0;0
74436;PMS7003;62868;52.360;30.424;2023-02-21T05:36:58;0;0;0
74436;PMS7003;62868;52.360;30.424;2023-02-21T05:41:10;0;0;0
74436;PMS7003;62868;52.360;30.424;2023-02-21T05:46:32;0;0;0
74436;PMS7003;62868;52.360;30.424;2023-02-21T05:51:33;0;0;0
74436;PMS7003;62868;52.360;30.424;2023-02-21T05:56:10;0.3;0;0
74436;PMS7003;62868;52.360;30.424;2023-02-21T06:01:58;0;0;0
74436;PMS7003;62868;52.360;30.424;2023-02-21T06:06:34;0;0;0
74436;PMS7003;62868;52.360;30.424;2023-02-21T06:11:48;0;0;0
74436;PMS7003;62868;52.360;30.424;2023-02-21T06:16:48;0.5;0;0
74436;PMS7003;62868;52.360;30.424;2023-02-21T06:21:20;0;0;0
74436;PMS7003;62868;52.360;30.424;2023-02-21T06:27:00;0.3;0;0
74436;PMS7003;62868;52.360;30.424;2023-02-21T06:31:30;0;0;0
74436;PMS7003;62868;52.360;30.424;2023-02-21T06:36:36;0;0;0
74436;PMS7003;62868;52.360;30.424;2023-02-21T06:41:58;0.3;0;0
74436;PMS7003;62868;52.360;30.424;2023-02-21T06:46:32;0;0;0
74436;PMS7003;62868;52.360;30.424;2023-02-21T06:51:34;0;0;0
74436;PMS7003;62868;52.360;30.424;2023-02-21T06:56:20;0;0;0
74436;PMS7003;62868;52.360;30.424;2023-02-21T07:01:36;0;0;0
74436;PMS7003;62868;52.360;30.424;2023-02-21T07:07:02;0;0;0
74436;PMS7003;62868;52.360;30.424;2023-02-21T07:11:20;0;0;0
74436;PMS7003;62868;52.360;30.424;2023-02-21T07:16:34;0;0;0
74436;PMS7003;62868;52.360;30.424;2023-02-21T07:21:20;0;0;0
74436;PMS7003;62868;52.360;30.424;2023-02-21T07:26:48;0;0;0
74436;PMS7003;62868;52.360;30.424;2023-02-21T07:32:00;0;0;0
74436;PMS7003;62868;52.360;30.424;2023-02-21T07:36:20;0;0;0
74436;PMS7003;62868;52.360;30.424;2023-02-21T07:41:46;0;0;0
74436;PMS7003;62868;52.360;30.424;2023-02-21T07:46:46;0;0;0
74436;PMS7003;62868;52.360;30.424;2023-02-21T07:51:34;0;0;0
74436;PMS7003;62868;52.360;30.424;2023-02-21T07:57:02;0.3;0;0
74436;PMS7003;62868;52.360;30.424;2023-02-21T08:01:23;0;0;0
74436;PMS7003;62868;52.360;30.424;2023-02-21T08:06:34;0.3;0;0
74436;PMS7003;62868;52.360;30.424;2023-02-21T08:11:20;0.3;0;0
74436;PMS7003;62868;52.360;30.424;2023-02-21T08:16:46;0.3;0;0
74436;PMS7003;62868;52.360;30.424;2023-02-21T08:22:02;0.3;0;0
74436;PMS7003;62868;52.360;30.424;2023-02-21T08:26:22;0.7;0;0
74436;PMS7003;62868;52.360;30.424;2023-02-21T08:31:46;0.3;0;0
74436;PMS7003;62868;52.360;30.424;2023-02-21T08:36:29;0;0;0
74436;PMS7003;62868;52.360;30.424;2023-02-21T08:41:48;0;0;0
74436;PMS7003;62868;52.360;30.424;2023-02-21T08:47:04;0;0;0
74436;PMS7003;62868;52.360;30.424;2023-02-21T08:51:34;0;0;0
74436;PMS7003;62868;52.360;30.424;2023-02-21T08:56:48;0;0;0
74436;PMS7003;62868;52.360;30.424;2023-02-21T09:01:36;0;0;0
74436;PMS7003;62868;52.360;30.424;2023-02-21T09:06:34;0;0;0
74436;PMS7003;62868;52.360;30.424;2023-02-21T09:12:04;0;0;0
74436;PMS7003;62868;52.360;30.424;2023-02-21T09:16:20;0;0;0
74436;PMS7003;62868;52.360;30.424;2023-02-21T09:21:46;0;0;0
74436;PMS7003;62868;52.360;30.424;2023-02-21T09:26:38;0;0;0
74436;PMS7003;62868;52.360;30.424;2023-02-21T09:31:50;0;0;0
74436;PMS7003;62868;52.360;30.424;2023-02-21T09:37:04;0;0;0
74436;PMS7003;62868;52.360;30.424;2023-02-21T09:41:11;0;0;0
74436;PMS7003;62868;52.360;30.424;2023-02-21T09:46:49;0;0;0
74436;PMS7003;62868;52.360;30.424;2023-02-21T09:51:34;0;0;0
74436;PMS7003;62868;52.360;30.424;2023-02-21T09:56:48;0;0;0
74436;PMS7003;62868;52.360;30.424;2023-02-21T10:02:08;0;0;0
74436;PMS7003;62868;52.360;30.424;2023-02-21T10:06:11;0;0;0
74436;PMS7003;62868;52.360;30.424;2023-02-21T10:11:37;0;0;0
74436;PMS7003;62868;52.360;30.424;2023-02-21T10:16:38;0;0;0
74436;PMS7003;62868;52.360;30.424;2023-02-21T10:21:48;0;0;0
74436;PMS7003;62868;52.360;30.424;2023-02-21T10:27:05;0;0;0
74436;PMS7003;62868;52.360;30.424;2023-02-21T10:31:22;0;0;0
74436;PMS7003;62868;52.360;30.424;2023-02-21T10:36:11;0;0;0
74436;PMS7003;62868;52.360;30.424;2023-02-21T10:41:10;0;0;0
74436;PMS7003;62868;52.360;30.424;2023-02-21T10:46:48;0;0;0
74436;PMS7003;62868;52.360;30.424;2023-02-21T10:52:06;0;0;0
74436;PMS7003;62868;52.360;30.424;2023-02-21T10:56:36;0;0;0
74436;PMS7003;62868;52.360;30.424;2023-02-21T11:01:11;0;0;0
74436;PMS7003;62868;52.360;30.424;2023-02-21T11:06:48;0;0;0
74436;PMS7003;62868;52.360;30.424;2023-02-21T11:12:06;0;0;0
74436;PMS7003;62868;52.360;30.424;2023-02-21T11:16:36;0;0;0
74436;PMS7003;62868;52.360;30.424;2023-02-21T11:21:34;0;0;0
74436;PMS7003;62868;52.360;30.424;2023-02-21T11:26:35;0;0;0
74436;PMS7003;62868;52.360;30.424;2023-02-21T11:31:48;0;0;0
74436;PMS7003;62868;52.360;30.424;2023-02-21T11:37:04;0;0;0
74436;PMS7003;62868;52.360;30.424;2023-02-21T11:41:26;0;0;0
74436;PMS7003;62868;52.360;30.424;2023-02-21T11:46:14;0.3;0;0
74436;PMS7003;62868;52.360;30.424;2023-02-21T11:51:38;0;0;0
74436;PMS7003;62868;52.360;30.424;2023-02-21T11:56:43;0;0;0
74436;PMS7003;62868;52.360;30.424;2023-02-21T12:02:40;0;0;0
74436;PMS7003;62868;52.360;30.424;2023-02-21T12:06:11;0.3;0;0
74436;PMS7003;62868;52.360;30.424;2023-02-21T12:11:38;0;0;0
74436;PMS7003;62868;52.360;30.424;2023-02-21T12:16:36;0;0;0
74436;PMS7003;62868;52.360;30.424;2023-02-21T12:21:18;0.3;0;0
74436;PMS7003;62868;52.360;30.424;2023-02-21T12:27:08;0;0;0
74436;PMS7003;62868;52.360;30.424;2023-02-21T12:31:40;0;0;0
74436;PMS7003;62868;52.360;30.424;2023-02-21T12:36:29;0;0;0
74436;PMS7003;62868;52.360;30.424;2023-02-21T12:41:42;0;0;0
74436;PMS7003;62868;52.360;30.424;2023-02-21T12:46:14;0;0;0
74436;PMS7003;62868;52.360;30.424;2023-02-21T12:52:12;0;0;0
74436;PMS7003;62868;52.360;30.424;2023-02-21T12:56:11;0;0;0
74436;PMS7003;62868;52.360;30.424;2023-02-21T13:01:37;0;0;0
74436;PMS7003;62868;52.360;30.424;2023-02-21T13:06:25;0;0;0
74436;PMS7003;62868;52.360;30.424;2023-02-21T13:11:53;0;0;0
74436;PMS7003;62868;52.360;30.424;2023-02-21T13:17:04;0;0;0
74436;PMS7003;62868;52.360;30.424;2023-02-21T13:21:41;0;0;0
74436;PMS7003;62868;52.360;30.424;2023-02-21T13:26:25;0;0;0
74436;PMS7003;62868;52.360;30.424;2023-02-21T13:31:37;0;0;0
74436;PMS7003;62868;52.360;30.424;2023-02-21T13:36:50;0;0;0
74436;PMS7003;62868;52.360;30.424;2023-02-21T13:42:05;0;0;0
74436;PMS7003;62868;52.360;30.424;2023-02-21T13:47:16;0;0;0
74436;PMS7003;62868;52.360;30.424;2023-02-21T13:51:24;0;0;0
74436;PMS7003;62868;52.360;30.424;2023-02-21T13:56:40;0;0;0
74436;PMS7003;62868;52.360;30.424;2023-02-21T14:01:47;0;0;0
74436;PMS7003;62868;52.360;30.424;2023-02-21T14:07:04;0;0;0
74436;PMS7003;62868;52.360;30.424;2023-02-21T14:11:35;0;0;0
74436;PMS7003;62868;52.360;30.424;2023-02-21T14:16:14;0;0;0
74436;PMS7003;62868;52.360;30.424;2023-02-21T14:21:35;0;0;0
74436;PMS7003;62868;52.360;30.424;2023-02-21T14:26:52;0;0;0
74436;PMS7003;62868;52.360;30.424;2023-02-21T14:32:33;0;0;0
74436;PMS7003;62868;52.360;30.424;2023-02-21T14:36:38;0;0;0
74436;PMS7003;62868;52.360;30.424;2023-02-21T14:41:15;0;0;0
74436;PMS7003;62868;52.360;30.424;2023-02-21T14:46:42;0;0;0
74436;PMS7003;62868;52.360;30.424;2023-02-21T14:51:25;0;0;0
74436;PMS7003;62868;52.360;30.424;2023-02-21T14:57:11;0;0;0
74436;PMS7003;62868;52.360;30.424;2023-02-21T15:01:28;0;0;0
74436;PMS7003;62868;52.360;30.424;2023-02-21T15:06:34;0;0;0
74436;PMS7003;62868;52.360;30.424;2023-02-21T15:11:35;0;0;0
74436;PMS7003;62868;52.360;30.424;2023-02-21T15:16:46;0;0;0
74436;PMS7003;62868;52.360;30.424;2023-02-21T15:22:06;0;0;0
74436;PMS7003;62868;52.360;30.424;2023-02-21T15:26:48;0;0;0
74436;PMS7003;62868;52.360;30.424;2023-02-21T15:31:24;0.5;0;0
74436;PMS7003;62868;52.360;30.424;2023-02-21T15:36:36;0.3;0;0
74436;PMS7003;62868;52.360;30.424;2023-02-21T15:41:49;0.7;0.3;0
74436;PMS7003;62868;52.360;30.424;2023-02-21T15:47:06;2.3;1.7;1.3
74436;PMS7003;62868;52.360;30.424;2023-02-21T15:51:36;1.8;1.3;1
74436;PMS7003;62868;52.360;30.424;2023-02-21T15:56:14;1.3;1.3;0.7
74436;PMS7003;62868;52.360;30.424;2023-02-21T16:01:34;2;1.3;1
74436;PMS7003;62868;52.360;30.424;2023-02-21T16:07:05;1;0.7;0
74436;PMS7003;62868;52.360;30.424;2023-02-21T16:12:05;0.8;0.8;0
74436;PMS7003;62868;52.360;30.424;2023-02-21T16:16:36;1;0.7;0.7
74436;PMS7003;62868;52.360;30.424;2023-02-21T16:21:24;1;0.7;0.3
74436;PMS7003;62868;52.360;30.424;2023-02-21T16:26:36;0.3;0.3;0
74436;PMS7003;62868;52.360;30.424;2023-02-21T16:31:47;1.5;1;0.5
74436;PMS7003;62868;52.360;30.424;2023-02-21T16:37:05;1.7;1.3;0.7
74436;PMS7003;62868;52.360;30.424;2023-02-21T16:41:36;1;1;0.7
74436;PMS7003;62868;52.360;30.424;2023-02-21T16:46:23;1;0.5;0
74436;PMS7003;62868;52.360;30.424;2023-02-21T16:51:24;1;0.3;0.3
74436;PMS7003;62868;52.360;30.424;2023-02-21T16:56:46;1;0.7;0.7
74436;PMS7003;62868;52.360;30.424;2023-02-21T17:02:02;0.7;0.3;0.3
74436;PMS7003;62868;52.360;30.424;2023-02-21T17:07:03;1.8;0.8;0.3
74436;PMS7003;62868;52.360;30.424;2023-02-21T17:11:10;1.7;1;1
74436;PMS7003;62868;52.360;30.424;2023-02-21T17:16:10;1.3;1;0.7
74436;PMS7003;62868;52.360;30.424;2023-02-21T17:21:48;2.3;1.7;1.3
74436;PMS7003;62868;52.360;30.424;2023-02-21T17:27:02;1.8;1.3;1
74436;PMS7003;62868;52.360;30.424;2023-02-21T17:32:04;1.3;1;0.7
74436;PMS7003;62868;52.360;30.424;2023-02-21T17:36:14;1.3;1;0.7
74436;PMS7003;62868;52.360;30.424;2023-02-21T17:41:10;0.3;0.3;0
74436;PMS7003;62868;52.360;30.424;2023-02-21T17:46:50;0.3;0.3;0
74436;PMS7003;62868;52.360;30.424;2023-02-21T17:52:04;1;0.3;0
74436;PMS7003;62868;52.360;30.424;2023-02-21T17:56:48;1;0;0
74436;PMS7003;62868;52.360;30.424;2023-02-21T18:01:20;0.7;0.7;0
74436;PMS7003;62868;52.360;30.424;2023-02-21T18:06:20;0.3;0;0
74436;PMS7003;62868;52.360;30.424;2023-02-21T18:11:48;0;0;0
74436;PMS7003;62868;52.360;30.424;2023-02-21T18:17:04;0.7;0.3;0
74436;PMS7003;62868;52.360;30.424;2023-02-21T18:22:04;1;0.7;0.3
74436;PMS7003;62868;52.360;30.424;2023-02-21T18:26:34;0.8;0.5;0.3
74436;PMS7003;62868;52.360;30.424;2023-02-21T18:31:38;1;0.7;0.3
74436;PMS7003;62868;52.360;30.424;2023-02-21T18:36:22;1.3;0.3;0.3
74436;PMS7003;62868;52.360;30.424;2023-02-21T18:42:04;2.3;0.3;0.3
74436;PMS7003;62868;52.360;30.424;2023-02-21T18:46:32;3.3;2.3;0.7
74436;PMS7003;62868;52.360;30.424;2023-02-21T18:51:36;1;0.7;0.3
74436;PMS7003;62868;52.360;30.424;2023-02-21T18:56:36;1.7;1.3;0.7
74436;PMS7003;62868;52.360;30.424;2023-02-21T19:01:48;0.5;0;0
74436;PMS7003;62868;52.360;30.424;2023-02-21T19:07:04;0.3;0.3;0
74436;PMS7003;62868;52.360;30.424;2023-02-21T19:11:28;1.3;0.7;0
74436;PMS7003;62868;52.360;30.424;2023-02-21T19:16:50;0.3;0.3;0
74436;PMS7003;62868;52.360;30.424;2023-02-21T19:21:52;0.3;0;0
74436;PMS7003;62868;52.360;30.424;2023-02-21T19:26:39;1.3;0.7;0.3
74436;PMS7003;62868;52.360;30.424;2023-02-21T19:31:44;2.7;1.3;0.7
74436;PMS7003;62868;52.360;30.424;2023-02-21T19:37:04;4;1.7;1.3
74436;PMS7003;62868;52.360;30.424;2023-02-21T19:41:36;1.8;0.8;0.3
74436;PMS7003;62868;52.360;30.424;2023-02-21T19:46:36;0.7;0.7;0.3
74436;PMS7003;62868;52.360;30.424;2023-02-21T19:51:21;2.3;1.7;0.7
74436;PMS7003;62868;52.360;30.424;2023-02-21T19:56:46;3.3;2;1
74436;PMS7003;62868;52.360;30.424;2023-02-21T20:02:02;2.3;1.3;0.8
74436;PMS7003;62868;52.360;30.424;2023-02-21T20:06:10;1;0.7;0.3
74436;PMS7003;62868;52.360;30.424;2023-02-21T20:11:36;2.7;2.3;1
74436;PMS7003;62868;52.360;30.424;2023-02-21T20:16:24;1.3;1.3;1
74436;PMS7003;62868;52.360;30.424;2023-02-21T20:21:47;1.3;0.8;0.5
74436;PMS7003;62868;52.360;30.424;2023-02-21T20:26:50;2;1.3;1
74436;PMS7003;62868;52.360;30.424;2023-02-21T20:31:24;3.3;2.7;1.3
74436;PMS7003;62868;52.360;30.424;2023-02-21T20:36:10;3.5;1.3;0.8
74436;PMS7003;62868;52.360;30.424;2023-02-21T20:41:36;1.3;1.3;0.3
74436;PMS7003;62868;52.360;30.424;2023-02-21T20:46:10;3.3;1;0.3
74436;PMS7003;62868;52.360;30.424;2023-02-21T20:52:06;1.3;1;0.3
74436;PMS7003;62868;52.360;30.424;2023-02-21T20:56:20;1.3;0.8;0.5
74436;PMS7003;62868;52.360;30.424;2023-02-21T21:01:38;0.7;0.3;0.3
74436;PMS7003;62868;52.360;30.424;2023-02-21T21:06:10;1.3;0.3;0
74436;PMS7003;62868;52.360;30.424;2023-02-21T21:11:48;0.3;0;0
74436;PMS7003;62868;52.360;30.424;2023-02-21T21:16:50;1.5;1;0.5
74436;PMS7003;62868;52.360;30.424;2023-02-21T21:21:27;1.7;1;0
74436;PMS7003;62868;52.360;30.424;2023-02-21T21:26:50;2;1.3;1
74436;PMS7003;62868;52.360;30.424;2023-02-21T21:31:10;1;1;0
74436;PMS7003;62868;52.360;30.424;2023-02-21T21:36:46;1.3;0.7;0.7
74436;PMS7003;62868;52.360;30.424;2023-02-21T21:42:08;1.3;1;0.7
74436;PMS7003;62868;52.360;30.424;2023-02-21T21:46:42;0.5;0.5;0.3
74436;PMS7003;62868;52.360;30.424;2023-02-21T21:51:26;1.3;0.3;0
74436;PMS7003;62868;52.360;30.424;2023-02-21T21:56:36;1;0.3;0
74436;PMS7003;62868;52.360;30.424;2023-02-21T22:02:04;1;0.3;0
74436;PMS7003;62868;52.360;30.424;2023-02-21T22:07:05;1.3;1;0.7
74436;PMS7003;62868;52.360;30.424;2023-02-21T22:11:24;1.7;1;1
74436;PMS7003;62868;52.360;30.424;2023-02-21T22:16:37;1.3;1;0.3
74436;PMS7003;62868;52.360;30.424;2023-02-21T22:21:34;1.5;1;0.3
74436;PMS7003;62868;52.360;30.424;2023-02-21T22:26:50;3.3;1;0.3
74436;PMS7003;62868;52.360;30.424;2023-02-21T22:32:04;1.7;1.3;1
74436;PMS7003;62868;52.360;30.424;2023-02-21T22:36:20;1.3;0.7;0
74436;PMS7003;62868;52.360;30.424;2023-02-21T22:41:38;1.8;0.5;0.5
74436;PMS7003;62868;52.360;30.424;2023-02-21T22:46:22;2;0.7;0.7
74436;PMS7003;62868;52.360;30.424;2023-02-21T22:51:36;2;1;0.7
74436;PMS7003;62868;52.360;30.424;2023-02-21T22:57:03;1.7;0.7;0.7
74436;PMS7003;62868;52.360;30.424;2023-02-21T23:01:26;4.3;3.3;2.5
74436;PMS7003;62868;52.360;30.424;2023-02-21T23:06:36;1.7;1.7;1
74436;PMS7003;62868;52.360;30.424;2023-02-21T23:11:15;7.7;6;2.7
74436;PMS7003;62868;52.360;30.424;2023-02-21T23:16:54;7.7;4;2
74436;PMS7003;62868;52.360;30.424;2023-02-21T23:22:04;5.5;5.3;3.8
74436;PMS7003;62868;52.360;30.424;2023-02-21T23:26:36;6.7;3.7;2
74436;PMS7003;62868;52.360;30.424;2023-02-21T23:31:10;5.3;3.7;1.7
74436;PMS7003;62868;52.360;30.424;2023-02-21T23:36:26;3.7;3.3;2
74436;PMS7003;62868;52.360;30.424;2023-02-21T23:41:34;4.3;2.5;1.5
74436;PMS7003;62868;52.360;30.424;2023-02-21T23:47:04;4.7;3.7;1.7
74436;PMS7003;62868;52.360;30.424;2023-02-21T23:51:48;3.3;2.3;1.3
74436;PMS7003;62868;52.360;30.424;2023-02-21T23:56:36;1.5;0.8;0.8
